Time;durP1;ratioP1;P1;durP2;ratioP2;P2;SDS_P1;SDS_P2;PMS_P1;PMS_P2;Temp;Humidity;BMP_temperature;BMP_pressure;BME280_temperature;BME280_humidity;BME280_pressure;Samples;Min_cycle;Max_cycle;Signal;HPM_P1;HPM_P2
2023/03/04 00:01:07;;;;;;;;;10.75;9.00;;;;;21.66;30.62;101941.38;5066341;27;57186;-75
2023/03/04 00:03:33;;;;;;;;;10.00;9.00;;;;;21.64;30.50;101931.72;5067869;27;45565;-75
2023/03/04 00:05:58;;;;;;;;;9.75;9.75;;;;;21.64;30.29;101943.25;5069859;28;45401;-74
2023/03/04 00:08:23;;;;;;;;;11.50;10.75;;;;;21.63;30.13;101932.69;5078436;27;45446;-74
2023/03/04 00:10:49;;;;;;;;;13.50;8.50;;;;;21.61;30.30;101933.59;5077039;27;45303;-74
2023/03/04 00:13:15;;;;;;;;;11.75;8.75;;;;;21.59;30.28;101932.84;5068876;27;56136;-75
2023/03/04 00:15:41;;;;;;;;;10.50;9.25;;;;;21.56;30.20;101929.47;5063360;27;45359;-74
2023/03/04 00:18:06;;;;;;;;;11.75;9.75;;;;;21.59;30.37;101935.50;5060013;28;45625;-75
2023/03/04 00:20:31;;;;;;;;;11.00;8.75;;;;;21.56;30.27;101940.13;5070658;28;45758;-75
2023/03/04 00:22:57;;;;;;;;;12.50;11.50;;;;;21.58;30.61;101941.78;5062148;28;45374;-74
2023/03/04 00:25:22;;;;;;;;;17.00;11.00;;;;;21.56;30.14;101946.31;5064656;28;75923;-74
2023/03/04 00:27:47;;;;;;;;;11.00;9.00;;;;;21.57;30.20;101949.88;5067630;27;69313;-74
2023/03/04 00:30:13;;;;;;;;;12.00;11.25;;;;;21.48;29.92;101937.91;5070098;27;45369;-74
2023/03/04 00:32:38;;;;;;;;;11.50;10.00;;;;;21.55;30.54;101951.75;5067011;28;45522;-74
2023/03/04 00:35:05;;;;;;;;;7.50;6.50;;;;;21.54;30.47;101952.69;5071849;27;60065;-74
2023/03/04 00:37:30;;;;;;;;;10.25;8.75;;;;;21.52;30.31;101951.91;5057154;28;45494;-74
2023/03/04 00:39:56;;;;;;;;;10.75;9.50;;;;;21.51;30.50;101952.84;5072430;28;64886;-74
2023/03/04 00:42:21;;;;;;;;;12.75;9.75;;;;;21.47;30.43;101948.63;5064491;28;67194;-74
2023/03/04 00:44:48;;;;;;;;;11.75;10.00;;;;;21.49;30.72;101952.06;5054946;28;59790;-74
2023/03/04 00:47:13;;;;;;;;;13.75;10.00;;;;;21.52;30.76;101959.91;5068680;28;45610;-74
2023/03/04 00:49:39;;;;;;;;;10.00;10.00;;;;;21.49;30.59;101949.41;5066185;28;64358;-74
2023/03/04 00:52:04;;;;;;;;;11.00;8.50;;;;;21.48;30.56;101961.88;5063845;27;72247;-74
2023/03/04 00:54:29;;;;;;;;;9.00;8.75;;;;;21.46;30.59;101954.88;5077453;27;45605;-74
2023/03/04 00:56:55;;;;;;;;;11.50;9.50;;;;;21.52;30.44;101967.91;5074965;28;45215;-74
2023/03/04 00:59:20;;;;;;;;;13.75;10.25;;;;;21.51;30.22;101966.16;5067278;27;65964;-75
2023/03/04 01:01:45;;;;;;;;;10.75;9.75;;;;;21.52;30.10;101962.56;5071540;27;67928;-75
2023/03/04 01:04:11;;;;;;;;;10.50;8.75;;;;;21.54;30.45;101969.53;5074846;28;45452;-75
2023/03/04 01:06:36;;;;;;;;;10.50;10.25;;;;;21.54;30.08;101960.69;5065308;28;62841;-75
2023/03/04 01:09:01;;;;;;;;;12.00;11.75;;;;;21.58;30.06;101964.88;5076683;27;49808;-74
2023/03/04 01:11:27;;;;;;;;;11.00;10.00;;;;;21.57;30.11;101965.84;5064934;27;45377;-74
2023/03/04 01:13:52;;;;;;;;;12.50;11.50;;;;;21.59;30.17;101967.47;5065676;28;74227;-75
2023/03/04 01:16:17;;;;;;;;;12.75;11.25;;;;;21.57;30.38;101960.53;5071417;27;70184;-74
2023/03/04 01:18:43;;;;;;;;;14.75;12.25;;;;;21.61;30.21;101962.91;5073080;28;69044;-74
2023/03/04 01:21:09;;;;;;;;;10.25;8.00;;;;;21.61;29.91;101967.38;5077855;27;45415;-75
2023/03/04 01:23:34;;;;;;;;;12.50;9.75;;;;;21.59;29.97;101956.81;5068630;28;66460;-74
2023/03/04 01:25:59;;;;;;;;;11.75;9.00;;;;;21.63;30.16;101961.97;5063084;28;53950;-74
2023/03/04 01:28:25;;;;;;;;;12.25;12.00;;;;;21.55;30.29;101952.59;5067246;28;45422;-74
2023/03/04 01:30:50;;;;;;;;;10.50;9.00;;;;;21.58;30.39;101949.78;5070634;28;61929;-74
2023/03/04 01:33:15;;;;;;;;;12.50;11.25;;;;;21.60;30.01;101947.00;5065671;28;71524;-74
2023/03/04 01:35:41;;;;;;;;;12.00;10.75;;;;;21.61;30.11;101951.41;5069326;28;47158;-75
2023/03/04 01:38:06;;;;;;;;;11.25;10.50;;;;;21.57;30.19;101948.06;5085592;27;59388;-75
2023/03/04 01:40:32;;;;;;;;;14.75;11.25;;;;;21.58;30.27;101957.78;5058161;28;45447;-74
2023/03/04 01:42:57;;;;;;;;;5.50;5.50;;;;;21.56;30.22;101946.31;5066897;28;45286;-75
2023/03/04 01:45:22;;;;;;;;;13.25;10.25;;;;;21.58;29.93;101948.91;5071344;28;73017;-74
2023/03/04 01:47:49;;;;;;;;;12.00;10.00;;;;;21.58;30.28;101947.13;5067925;28;66551;-74
2023/03/04 01:50:30;;;;;;;;;12.75;10.50;;;;;21.57;30.24;101942.72;5069410;28;45516;-74
2023/03/04 01:52:55;;;;;;;;;13.00;10.50;;;;;21.54;30.18;101934.88;5071508;28;45437;-74
2023/03/04 01:55:22;;;;;;;;;12.00;10.75;;;;;21.56;30.12;101940.13;5069682;27;45403;-74
2023/03/04 01:57:49;;;;;;;;;10.75;9.00;;;;;21.56;30.09;101938.31;5073441;27;45476;-74
2023/03/04 02:00:20;;;;;;;;;11.50;9.75;;;;;21.54;30.30;101937.56;5052602;28;45486;-75
2023/03/04 02:02:46;;;;;;;;;16.75;13.00;;;;;21.51;30.11;101924.41;5070849;28;47178;-74
2023/03/04 02:05:12;;;;;;;;;14.00;11.00;;;;;21.53;29.88;101930.53;5049091;28;45424;-74
2023/03/04 02:07:38;;;;;;;;;14.25;12.00;;;;;21.48;30.12;101913.03;5070343;28;45362;-74
2023/03/04 02:10:04;;;;;;;;;11.00;10.75;;;;;21.46;29.71;101918.47;5065288;28;45503;-74
2023/03/04 02:12:29;;;;;;;;;15.25;10.50;;;;;21.47;29.94;101920.19;5070898;28;45661;-74
2023/03/04 02:14:55;;;;;;;;;10.25;7.75;;;;;21.46;30.18;101917.59;5055706;28;74743;-74
2023/03/04 02:17:24;;;;;;;;;11.50;11.25;;;;;21.49;29.78;101925.44;5065864;28;68800;-73
2023/03/04 02:19:55;;;;;;;;;8.00;8.00;;;;;21.50;29.88;101932.50;5051327;28;45596;-73
2023/03/04 02:22:21;;;;;;;;;13.00;10.25;;;;;21.47;30.11;101928.19;5071937;28;45505;-73
2023/03/04 02:24:54;;;;;;;;;12.00;9.00;;;;;21.46;30.12;101928.25;5064955;27;72064;-73
2023/03/04 02:27:19;;;;;;;;;12.25;10.50;;;;;21.46;30.19;101933.59;5079944;28;45188;-73
2023/03/04 02:29:44;;;;;;;;;9.00;9.00;;;;;21.45;30.13;101934.50;5069229;28;63893;-74
2023/03/04 02:32:11;;;;;;;;;15.50;12.00;;;;;21.46;30.05;101933.59;5068127;27;46110;-74
2023/03/04 02:34:38;;;;;;;;;9.25;7.75;;;;;21.45;29.75;101926.53;5073049;27;45493;-74
2023/03/04 02:37:03;;;;;;;;;12.00;10.00;;;;;21.44;30.26;101922.97;5068920;27;45429;-74
2023/03/04 02:39:33;;;;;;;;;10.75;9.00;;;;;21.43;29.79;101930.09;5064595;27;67884;-74
2023/03/04 02:41:59;;;;;;;;;14.50;11.00;;;;;21.40;29.86;101918.75;5076175;27;45398;-74
2023/03/04 02:44:29;;;;;;;;;10.25;9.00;;;;;21.41;29.96;101925.81;5085201;27;45424;-74
2023/03/04 02:46:55;;;;;;;;;10.25;8.75;;;;;21.38;29.87;101920.66;5081190;27;45479;-74
2023/03/04 02:49:22;;;;;;;;;8.00;8.00;;;;;21.33;29.99;101918.22;5077203;27;45456;-74
2023/03/04 02:52:08;;;;;;;;;9.25;9.25;;;;;21.38;29.90;101923.31;5066640;28;45322;-74
2023/03/04 02:54:34;;;;;;;;;12.25;10.75;;;;;21.33;30.51;101912.91;5058565;28;45690;-74
2023/03/04 02:57:05;;;;;;;;;12.25;9.00;;;;;21.37;30.36;101922.47;5072666;28;45641;-74
2023/03/04 02:59:31;;;;;;;;;9.50;8.75;;;;;21.35;30.38;101915.47;5080957;27;45485;-74
2023/03/04 03:01:56;;;;;;;;;10.75;9.00;;;;;21.35;30.34;101904.84;5073247;27;46615;-74
2023/03/04 03:04:23;;;;;;;;;9.75;9.75;;;;;21.41;30.15;101910.69;5069367;28;45392;-74
2023/03/04 03:06:49;;;;;;;;;7.50;7.50;;;;;21.39;29.56;101909.06;5071822;27;45407;-74
2023/03/04 03:09:14;;;;;;;;;9.00;7.75;;;;;21.41;29.71;101907.19;5073704;27;46981;-74
2023/03/04 03:11:39;;;;;;;;;12.25;10.50;;;;;21.43;30.13;101906.16;5059037;28;56320;-74
2023/03/04 03:14:05;;;;;;;;;8.75;8.00;;;;;21.44;29.72;101907.00;5073356;28;45496;-74
2023/03/04 03:16:30;;;;;;;;;12.75;10.75;;;;;21.45;29.87;101906.06;5062635;28;45530;-74
2023/03/04 03:18:56;;;;;;;;;12.00;10.75;;;;;21.44;30.17;101904.31;5059348;28;45565;-74
2023/03/04 03:21:22;;;;;;;;;13.00;10.25;;;;;21.47;29.71;101903.34;5065479;27;72312;-74
2023/03/04 03:23:47;;;;;;;;;10.25;10.25;;;;;21.47;29.73;101900.69;5068359;28;45364;-74
2023/03/04 03:26:12;;;;;;;;;11.50;10.50;;;;;21.50;30.05;101903.19;5067771;28;45452;-74
2023/03/04 03:28:38;;;;;;;;;12.25;10.75;;;;;21.48;29.72;101900.63;5067049;28;46369;-74
2023/03/04 03:31:03;;;;;;;;;15.00;10.25;;;;;21.49;29.95;101901.47;5067452;27;75430;-74
2023/03/04 03:33:28;;;;;;;;;12.50;12.25;;;;;21.46;30.02;101899.84;5072506;27;45294;-74
2023/03/04 03:35:54;;;;;;;;;10.00;10.00;;;;;21.50;29.94;101911.19;5075286;28;45787;-74
2023/03/04 03:38:19;;;;;;;;;14.25;11.25;;;;;21.46;29.53;101894.50;5066612;28;57723;-74
2023/03/04 03:40:44;;;;;;;;;13.75;11.75;;;;;21.47;29.63;101901.53;5075311;27;75021;-74
2023/03/04 03:43:10;;;;;;;;;13.00;10.75;;;;;21.46;29.91;101897.19;5070954;28;70688;-74
2023/03/04 03:45:35;;;;;;;;;12.25;11.00;;;;;21.49;29.65;101904.97;5074312;28;65324;-74
2023/03/04 03:48:00;;;;;;;;;13.50;11.00;;;;;21.49;29.52;101901.47;5075416;27;55484;-74
2023/03/04 03:50:27;;;;;;;;;11.00;10.00;;;;;21.47;29.81;101906.03;5074476;27;70028;-74
2023/03/04 03:52:53;;;;;;;;;7.50;7.00;;;;;21.45;29.63;101903.41;5069813;27;45885;-74
2023/03/04 03:55:18;;;;;;;;;14.50;12.25;;;;;21.43;29.73;101905.28;5071160;27;65984;-74
2023/03/04 03:57:43;;;;;;;;;11.00;10.00;;;;;21.45;29.86;101906.06;5075283;28;45533;-74
2023/03/04 04:00:10;;;;;;;;;14.00;11.50;;;;;21.45;29.71;101911.38;5071718;27;75236;-74
2023/03/04 04:02:35;;;;;;;;;11.00;11.00;;;;;21.45;29.65;101913.19;5058145;28;46261;-73
2023/03/04 04:05:00;;;;;;;;;19.50;12.25;;;;;21.45;29.79;101922.03;5068550;28;63399;-73
2023/03/04 04:07:26;;;;;;;;;12.50;11.00;;;;;21.45;29.68;101915.88;5078392;28;45552;-73
2023/03/04 04:09:51;;;;;;;;;11.00;10.00;;;;;21.42;30.01;101912.44;5054132;28;60565;-74
2023/03/04 04:12:18;;;;;;;;;13.00;10.00;;;;;21.37;29.64;101911.81;5053923;28;74401;-74
2023/03/04 04:14:43;;;;;;;;;14.75;12.00;;;;;21.41;29.61;101925.81;5074861;27;45590;-74
2023/03/04 04:17:09;;;;;;;;;11.75;10.50;;;;;21.38;29.74;101913.50;5072273;28;45453;-74
2023/03/04 04:19:35;;;;;;;;;7.75;6.00;;;;;21.36;29.86;101912.75;5073232;27;45998;-74
2023/03/04 04:22:01;;;;;;;;;12.25;10.25;;;;;21.35;29.87;101923.47;5081022;27;53184;-73
2023/03/04 04:24:26;;;;;;;;;16.00;9.25;;;;;21.35;29.71;101916.34;5047840;28;45529;-73
2023/03/04 04:26:51;;;;;;;;;13.00;11.75;;;;;21.35;29.86;101918.16;5070425;27;45566;-73
2023/03/04 04:29:17;;;;;;;;;8.75;6.00;;;;;21.33;30.08;101926.22;5068713;28;75638;-73
2023/03/04 04:31:42;;;;;;;;;16.50;11.75;;;;;21.34;29.64;101925.28;5071272;27;45532;-74
2023/03/04 04:34:08;;;;;;;;;9.75;9.75;;;;;21.33;29.84;101930.69;5069706;27;65362;-74
2023/03/04 04:36:33;;;;;;;;;10.75;8.75;;;;;21.30;29.92;101918.41;5075785;27;45281;-73
2023/03/04 04:38:58;;;;;;;;;12.75;10.75;;;;;21.31;30.01;101913.94;5072363;27;48345;-74
2023/03/04 04:41:27;;;;;;;;;12.50;9.00;;;;;21.32;30.21;101923.63;5068356;28;45375;-74
2023/03/04 04:43:52;;;;;;;;;10.25;9.00;;;;;21.29;29.81;101927.31;5072382;27;46163;-74
2023/03/04 04:46:18;;;;;;;;;8.25;8.00;;;;;21.31;29.75;101930.78;5072502;28;65392;-75
2023/03/04 04:48:43;;;;;;;;;9.50;8.00;;;;;21.31;29.78;101933.44;5074443;28;52675;-74
2023/03/04 04:51:09;;;;;;;;;10.00;9.00;;;;;21.31;30.28;101929.91;5075700;27;60179;-74
2023/03/04 04:53:35;;;;;;;;;11.75;9.75;;;;;21.32;29.58;101928.94;5072482;28;47013;-74
2023/03/04 04:56:07;;;;;;;;;9.00;8.00;;;;;21.31;29.63;101932.56;5072936;27;45565;-74
2023/03/04 04:58:33;;;;;;;;;12.00;9.50;;;;;21.31;29.66;101938.75;5082063;27;45340;-74
2023/03/04 05:00:58;;;;;;;;;11.25;8.50;;;;;21.35;29.64;101950.94;5072288;27;70530;-74
2023/03/04 05:03:23;;;;;;;;;11.50;7.25;;;;;21.35;29.99;101944.78;5068958;28;52639;-73
2023/03/04 05:05:49;;;;;;;;;9.25;9.00;;;;;21.37;29.62;101946.44;5070761;28;55932;-74
2023/03/04 05:08:14;;;;;;;;;10.50;8.00;;;;;21.38;29.86;101945.47;5060069;27;75426;-74
2023/03/04 05:10:39;;;;;;;;;10.50;9.25;;;;;21.41;29.44;101949.78;5074459;27;45526;-74
2023/03/04 05:13:05;;;;;;;;;13.50;8.25;;;;;21.36;30.07;101938.53;5069751;28;60330;-74
2023/03/04 05:15:30;;;;;;;;;9.50;7.50;;;;;21.38;29.77;101944.63;5061129;27;68452;-75
2023/03/04 05:17:56;;;;;;;;;9.00;9.00;;;;;21.37;29.64;101946.44;5065296;27;73624;-74
2023/03/04 05:20:22;;;;;;;;;10.50;10.00;;;;;21.35;29.77;101948.28;5072235;28;45431;-74
2023/03/04 05:22:48;;;;;;;;;10.75;8.75;;;;;21.41;29.99;101960.44;5054863;28;45366;-74
2023/03/04 05:25:13;;;;;;;;;8.75;8.00;;;;;21.43;29.37;101963.88;5066534;28;45609;-74
2023/03/04 05:27:38;;;;;;;;;9.25;9.25;;;;;21.37;29.42;101953.53;5072944;27;67166;-74
2023/03/04 05:30:04;;;;;;;;;7.25;6.00;;;;;21.37;29.52;101949.09;5072257;28;67914;-74
2023/03/04 05:32:29;;;;;;;;;9.50;9.25;;;;;21.37;29.94;101957.09;5071800;27;45512;-74
2023/03/04 05:34:55;;;;;;;;;11.00;9.00;;;;;21.41;29.70;101963.97;5067860;28;62137;-75
2023/03/04 05:37:20;;;;;;;;;10.75;9.00;;;;;21.40;29.91;101962.22;5074771;27;73203;-75
2023/03/04 05:39:45;;;;;;;;;9.00;8.00;;;;;21.41;29.47;101963.97;5072958;28;56853;-73
2023/03/04 05:42:11;;;;;;;;;10.25;8.00;;;;;21.34;29.48;101945.75;5068669;28;45447;-73
2023/03/04 05:44:36;;;;;;;;;8.00;8.00;;;;;21.38;29.74;101957.94;5068229;28;72930;-73
2023/03/04 05:47:01;;;;;;;;;10.75;9.00;;;;;21.36;29.46;101959.81;5070702;28;66152;-73
2023/03/04 05:49:27;;;;;;;;;10.75;7.50;;;;;21.36;29.78;101952.69;5072494;27;45437;-73
2023/03/04 05:51:52;;;;;;;;;10.00;9.00;;;;;21.35;29.55;101961.59;5063876;27;66395;-74
2023/03/04 05:54:17;;;;;;;;;8.50;8.50;;;;;21.31;29.81;101957.41;5066500;28;45578;-74
2023/03/04 05:56:44;;;;;;;;;11.75;7.75;;;;;21.34;29.66;101959.06;5063771;27;47227;-74
2023/03/04 05:59:09;;;;;;;;;9.00;7.50;;;;;21.34;29.40;101967.03;5073603;27;67451;-74
2023/03/04 06:01:35;;;;;;;;;9.75;7.75;;;;;21.31;29.25;101965.38;5072040;27;65726;-73
2023/03/04 06:04:00;;;;;;;;;8.50;7.00;;;;;21.31;29.68;101961.88;5071645;27;45584;-74
2023/03/04 06:06:25;;;;;;;;;9.00;8.00;;;;;21.32;29.33;101974.22;5073885;27;71164;-74
2023/03/04 06:08:51;;;;;;;;;8.25;7.00;;;;;21.31;29.42;101975.19;5080505;27;54288;-74
2023/03/04 06:11:16;;;;;;;;;9.75;9.00;;;;;21.30;29.55;101973.44;5065913;28;45285;-74
2023/03/04 06:13:41;;;;;;;;;9.00;6.25;;;;;21.25;29.38;101965.72;5075517;27;72424;-74
2023/03/04 06:16:07;;;;;;;;;9.00;8.00;;;;;21.25;29.82;101973.72;5076004;27;46377;-74
2023/03/04 06:18:32;;;;;;;;;11.75;7.25;;;;;21.28;29.81;101986.84;5053050;28;45724;-74
2023/03/04 06:21:02;;;;;;;;;6.75;5.25;;;;;21.23;29.85;101975.59;5065347;27;63981;-74
2023/03/04 06:23:28;;;;;;;;;9.00;7.75;;;;;21.27;29.91;101987.78;5072813;27;46580;-73
2023/03/04 06:25:56;;;;;;;;;7.75;7.00;;;;;21.27;29.67;101987.78;5070976;27;45713;-74
2023/03/04 06:28:22;;;;;;;;;6.50;5.00;;;;;21.27;29.77;101981.63;5075829;27;45750;-73
2023/03/04 06:30:51;;;;;;;;;8.25;7.00;;;;;21.28;29.79;101985.97;5074849;27;45402;-73
2023/03/04 06:33:16;;;;;;;;;8.00;6.75;;;;;21.25;30.04;101981.69;5082238;27;45373;-73
2023/03/04 06:35:41;;;;;;;;;10.25;7.75;;;;;21.27;29.38;101990.47;5074512;27;45563;-74
2023/03/04 06:38:07;;;;;;;;;9.75;8.00;;;;;21.31;29.59;101994.66;5075014;27;45365;-74
2023/03/04 06:40:32;;;;;;;;;8.25;6.25;;;;;21.33;29.55;102003.44;5074496;27;45272;-74
2023/03/04 06:42:57;;;;;;;;;9.00;6.50;;;;;21.34;29.72;101999.00;5072148;27;64328;-74
2023/03/04 06:45:23;;;;;;;;;7.75;7.25;;;;;21.35;29.64;101996.22;5075771;27;69954;-74
2023/03/04 06:47:48;;;;;;;;;9.00;8.00;;;;;21.34;29.39;101991.84;5068970;28;69621;-74
2023/03/04 06:50:13;;;;;;;;;9.00;7.00;;;;;21.35;29.61;101998.88;5073834;27;45504;-74
2023/03/04 06:52:39;;;;;;;;;6.00;6.00;;;;;21.36;29.73;101997.97;5070179;28;45504;-74
2023/03/04 06:55:05;;;;;;;;;9.50;8.50;;;;;21.35;29.72;102001.56;5055720;28;47292;-74
2023/03/04 06:57:30;;;;;;;;;7.75;7.75;;;;;21.33;29.29;102003.44;5076444;28;45532;-74
2023/03/04 06:59:56;;;;;;;;;7.75;7.00;;;;;21.38;29.47;102004.06;5066888;28;45701;-74
2023/03/04 07:02:21;;;;;;;;;10.50;7.00;;;;;21.38;29.40;102009.38;5074123;28;45593;-74
2023/03/04 07:04:47;;;;;;;;;7.25;7.00;;;;;21.39;29.55;102013.78;5068518;27;45835;-74
2023/03/04 07:07:12;;;;;;;;;7.00;7.00;;;;;21.41;29.55;102011.91;5079485;27;45369;-74
2023/03/04 07:09:38;;;;;;;;;6.75;6.00;;;;;21.41;29.60;102014.56;5075007;28;45694;-74
2023/03/04 07:12:03;;;;;;;;;7.25;6.00;;;;;21.39;29.61;102015.59;5063791;27;45675;-74
2023/03/04 07:14:28;;;;;;;;;6.75;6.75;;;;;21.40;29.98;102010.16;5072653;27;47594;-74
2023/03/04 07:16:54;;;;;;;;;3.75;3.75;;;;;21.43;29.27;102017.16;5074054;28;72934;-74
2023/03/04 07:19:20;;;;;;;;;7.25;6.00;;;;;21.45;29.38;102015.25;5062664;28;45376;-74
2023/03/04 07:21:45;;;;;;;;;6.00;6.00;;;;;21.43;30.04;102022.47;5077261;27;45537;-74
2023/03/04 07:24:11;;;;;;;;;7.00;7.00;;;;;21.45;29.75;102017.06;5063353;27;47437;-74
2023/03/04 07:26:37;;;;;;;;;6.50;5.00;;;;;21.48;29.73;102023.13;5078819;27;45394;-74
2023/03/04 07:29:02;;;;;;;;;5.50;5.00;;;;;21.35;29.94;101995.38;5056611;28;45415;-74
2023/03/04 07:31:30;;;;;;;;;5.50;5.25;;;;;21.50;30.05;102031.91;5072609;27;45390;-74
2023/03/04 07:33:57;;;;;;;;;8.25;7.00;;;;;21.51;29.95;102030.94;5066881;27;45662;-72
2023/03/04 07:36:23;;;;;;;;;9.75;7.25;;;;;21.52;29.96;102027.34;5066105;28;45732;-72
2023/03/04 07:38:49;;;;;;;;;7.00;7.00;;;;;21.53;29.72;102022.88;5068715;28;45349;-78
2023/03/04 07:41:16;;;;;;;;;6.00;6.00;;;;;21.52;29.77;102026.50;5070011;27;45558;-74
2023/03/04 07:43:41;;;;;;;;;10.75;7.50;;;;;21.57;29.74;102045.75;5070786;28;46205;-72
2023/03/04 07:46:07;;;;;;;;;9.75;7.00;;;;;21.58;30.41;102040.34;5089550;27;45503;-73
2023/03/04 07:48:32;;;;;;;;;11.00;8.75;;;;;21.58;30.05;102035.03;5065765;28;45378;-73
2023/03/04 07:51:20;;;;;;;;;11.25;9.00;;;;;21.63;29.97;102033.91;5066800;27;45363;-73
2023/03/04 07:53:48;;;;;;;;;8.00;7.00;;;;;21.65;30.41;102040.00;5053619;28;48272;-74
2023/03/04 07:56:19;;;;;;;;;12.00;10.00;;;;;21.66;30.02;102045.28;5068452;28;45263;-74
2023/03/04 07:58:45;;;;;;;;;14.25;9.25;;;;;21.69;30.40;102042.44;5066195;27;45469;-74
2023/03/04 08:01:13;;;;;;;;;9.25;8.25;;;;;21.71;29.92;102048.56;5068218;28;45278;-73
2023/03/04 08:03:39;;;;;;;;;11.75;9.75;;;;;21.69;30.06;102042.44;5062862;27;47041;-73
2023/03/04 08:06:06;;;;;;;;;10.25;9.75;;;;;21.71;29.94;102045.00;5069589;27;45467;-74
2023/03/04 08:08:32;;;;;;;;;9.75;9.25;;;;;21.73;30.10;102051.13;5073513;28;45481;-74
2023/03/04 08:10:57;;;;;;;;;13.50;8.00;;;;;21.77;29.81;102056.22;5079155;27;45315;-72
2023/03/04 08:13:22;;;;;;;;;22.00;19.25;;;;;21.76;29.06;102058.94;5076667;27;63368;-71
2023/03/04 08:15:48;;;;;;;;;22.75;20.00;;;;;21.75;28.65;102062.56;5070732;27;67089;-80
2023/03/04 08:18:13;;;;;;;;;22.25;17.50;;;;;21.69;28.67;102065.53;5061128;27;69431;-78
2023/03/04 08:20:42;;;;;;;;;21.00;19.25;;;;;21.62;28.30;102067.69;5066141;27;45331;-75
2023/03/04 08:23:07;;;;;;;;;21.50;16.75;;;;;21.59;28.26;102068.69;5072124;27;46071;-73
2023/03/04 08:25:33;;;;;;;;;19.00;18.00;;;;;21.53;28.10;102066.38;5072187;27;45448;-72
2023/03/04 08:27:58;;;;;;;;;18.75;16.00;;;;;21.46;27.74;102069.41;5071568;27;53572;-82
2023/03/04 08:30:24;;;;;;;;;23.50;20.00;;;;;21.43;27.88;102070.41;5064737;28;45489;-76
2023/03/04 08:32:49;;;;;;;;;21.00;17.75;;;;;21.38;27.65;102072.44;5069166;27;45985;-74
2023/03/04 08:35:15;;;;;;;;;20.75;16.75;;;;;21.33;27.82;102074.47;5086375;27;70154;-74
2023/03/04 08:37:40;;;;;;;;;23.50;20.50;;;;;21.23;27.78;102069.63;5068705;27;45334;-77
2023/03/04 08:40:06;;;;;;;;;21.25;16.00;;;;;21.23;27.85;102069.63;5070555;28;71954;-76
2023/03/04 08:42:31;;;;;;;;;21.25;19.25;;;;;21.23;27.98;102076.78;5071147;27;46490;-76
2023/03/04 08:44:56;;;;;;;;;19.50;16.25;;;;;21.21;27.65;102075.94;5058659;28;45303;-82
2023/03/04 08:47:22;;;;;;;;;18.00;11.75;;;;;21.18;27.98;102069.00;5073446;27;57061;-81
2023/03/04 08:49:47;;;;;;;;;9.75;8.75;;;;;21.20;28.13;102071.59;5067746;28;54050;-81
2023/03/04 08:52:12;;;;;;;;;14.00;10.50;;;;;21.20;28.34;102067.13;5077095;28;64384;-75
2023/03/04 08:54:38;;;;;;;;;10.75;9.25;;;;;21.27;28.24;102075.66;5074117;27;45449;-72
2023/03/04 08:57:03;;;;;;;;;13.25;10.00;;;;;21.27;28.35;102067.66;5074955;28;55424;-75
2023/03/04 08:59:28;;;;;;;;;11.50;10.00;;;;;21.32;28.82;102075.41;5069829;28;49012;-77
2023/03/04 09:01:54;;;;;;;;;12.50;10.00;;;;;21.37;29.03;102087.56;5066372;27;72744;-78
2023/03/04 09:04:19;;;;;;;;;10.75;10.00;;;;;21.31;28.89;102060.38;5060939;28;45453;-74
2023/03/04 09:06:44;;;;;;;;;13.00;9.25;;;;;21.45;29.01;102081.00;5063632;27;69241;-73
2023/03/04 09:09:10;;;;;;;;;8.00;7.50;;;;;21.46;29.15;102083.63;5070110;27;45252;-74
2023/03/04 09:11:35;;;;;;;;;8.75;5.25;;;;;21.48;28.98;102080.84;5076018;27;68307;-73
2023/03/04 09:14:00;;;;;;;;;8.75;6.00;;;;;21.52;29.05;102082.44;5060802;28;45442;-73
2023/03/04 09:16:26;;;;;;;;;8.75;7.00;;;;;21.52;28.88;102079.78;5062182;27;60861;-73
2023/03/04 09:18:51;;;;;;;;;7.75;6.00;;;;;21.56;29.13;102086.66;5044757;28;74565;-73
2023/03/04 09:21:17;;;;;;;;;9.25;6.75;;;;;21.56;28.68;102083.97;5062928;28;46043;-73
2023/03/04 09:23:42;;;;;;;;;7.00;5.00;;;;;21.60;28.93;102090.88;5064528;28;45825;-73
2023/03/04 09:26:24;;;;;;;;;8.00;5.75;;;;;21.63;28.98;102090.72;5057367;28;45529;-73
2023/03/04 09:28:56;;;;;;;;;7.00;4.50;;;;;21.61;29.20;102092.59;5069906;27;45572;-73
2023/03/04 09:31:22;;;;;;;;;7.00;5.75;;;;;21.64;29.11;102089.78;5053043;27;47323;-73
2023/03/04 09:33:47;;;;;;;;;7.75;6.75;;;;;21.64;29.06;102089.78;5054833;28;45435;-74
2023/03/04 09:36:13;;;;;;;;;6.00;6.00;;;;;21.69;29.08;102094.84;5073702;28;45323;-73
2023/03/04 09:38:39;;;;;;;;;4.00;4.00;;;;;21.67;29.33;102086.09;5077393;27;45755;-73
2023/03/04 09:41:26;;;;;;;;;4.00;4.00;;;;;21.70;28.89;102093.94;5073937;28;45434;-73
2023/03/04 09:43:57;;;;;;;;;5.25;4.50;;;;;21.71;28.93;102091.19;5049122;28;46417;-73
2023/03/04 09:46:33;;;;;;;;;5.50;4.50;;;;;21.71;29.14;102091.19;5062890;28;45517;-74
2023/03/04 09:48:59;;;;;;;;;7.25;5.25;;;;;21.72;29.07;102090.22;5041596;28;45321;-74
2023/03/04 09:51:48;;;;;;;;;5.50;5.00;;;;;21.75;28.82;102100.72;5054287;28;48416;-73
2023/03/04 09:54:20;;;;;;;;;6.50;4.75;;;;;21.79;28.92;102104.09;5054911;28;45347;-73
2023/03/04 09:56:48;;;;;;;;;4.00;4.00;;;;;21.75;29.15;102095.41;5078469;28;45516;-73
2023/03/04 09:59:40;;;;;;;;;4.75;4.00;;;;;21.81;29.06;102096.88;5052421;28;45427;-74
2023/03/04 10:02:21;;;;;;;;;4.25;4.25;;;;;21.83;29.36;102104.78;5056147;28;45502;-74
2023/03/04 10:04:49;;;;;;;;;5.50;4.00;;;;;21.83;29.50;102097.66;5069185;27;45291;-74
2023/03/04 10:07:28;;;;;;;;;5.00;5.00;;;;;21.85;29.18;102089.59;5073525;28;45541;-73
2023/03/04 10:09:59;;;;;;;;;5.50;4.25;;;;;21.86;29.06;102093.97;5075178;27;45248;-73
2023/03/04 10:12:29;;;;;;;;;6.00;4.00;;;;;21.85;29.16;102098.47;5067877;28;46402;-73
2023/03/04 10:15:00;;;;;;;;;4.50;4.00;;;;;21.88;29.41;102094.75;5053694;28;45768;-73
2023/03/04 10:17:37;;;;;;;;;4.50;3.75;;;;;21.89;28.95;102096.50;5061242;28;45548;-73
2023/03/04 10:20:08;;;;;;;;;6.25;5.00;;;;;21.90;29.44;102093.75;5073630;28;45340;-73
2023/03/04 10:22:38;;;;;;;;;4.50;4.00;;;;;21.88;29.29;102098.28;5063151;27;46334;-73
2023/03/04 10:25:20;;;;;;;;;4.00;4.00;;;;;21.92;29.45;102097.19;5067804;28;45487;-73
2023/03/04 10:28:10;;;;;;;;;4.00;4.00;;;;;21.88;29.11;102079.63;5042135;28;45548;-73
2023/03/04 10:31:03;;;;;;;;;6.75;6.00;;;;;21.95;29.19;102080.16;5060504;28;45433;-73
2023/03/04 10:33:33;;;;;;;;;7.25;3.75;;;;;21.89;29.46;102070.69;5059866;28;48276;-73
2023/03/04 10:36:10;;;;;;;;;5.00;4.00;;;;;21.92;29.14;102065.22;5073115;27;46039;-73
2023/03/04 10:38:39;;;;;;;;;7.00;4.25;;;;;21.96;28.89;102074.75;5071758;27;45384;-73
2023/03/04 10:41:20;;;;;;;;;7.25;5.00;;;;;21.96;29.66;102069.41;5069887;28;45405;-73
2023/03/04 10:44:04;;;;;;;;;6.00;6.00;;;;;21.99;29.05;102071.03;5079078;28;45337;-73
2023/03/04 10:46:30;;;;;;;;;6.00;5.00;;;;;22.00;29.24;102076.28;5082056;27;45362;-73
2023/03/04 10:48:57;;;;;;;;;7.75;4.00;;;;;21.97;28.97;102059.59;5047090;28;45403;-73
2023/03/04 10:51:27;;;;;;;;;5.50;4.25;;;;;22.01;29.56;102069.19;5079930;27;45246;-73
2023/03/04 10:54:26;;;;;;;;;5.50;4.25;;;;;22.03;29.53;102071.75;5080242;27;46320;-73
2023/03/04 10:56:55;;;;;;;;;5.75;4.00;;;;;22.05;28.97;102072.53;5057140;28;45465;-73
2023/03/04 10:59:24;;;;;;;;;5.00;4.00;;;;;22.05;29.05;102061.88;5076126;28;45388;-74
2023/03/04 11:01:50;;;;;;;;;4.50;4.50;;;;;22.04;29.09;102057.47;5074780;27;45496;-73
2023/03/04 11:04:19;;;;;;;;;3.50;2.00;;;;;22.07;29.65;102070.66;5080347;27;45362;-73
2023/03/04 11:06:45;;;;;;;;;4.00;4.00;;;;;22.05;29.34;102053.88;5076273;27;45409;-73
2023/03/04 11:09:39;;;;;;;;;4.75;3.75;;;;;22.10;30.23;102055.34;5071834;27;45249;-74
2023/03/04 11:12:11;;;;;;;;;5.25;4.00;;;;;22.07;30.44;102058.16;5071314;28;45488;-73
2023/03/04 11:14:43;;;;;;;;;4.00;3.00;;;;;22.11;30.56;102058.84;5077091;27;47325;-74
2023/03/04 11:17:20;;;;;;;;;5.50;4.00;;;;;22.12;30.24;102053.44;5078584;28;45446;-73
2023/03/04 11:19:50;;;;;;;;;5.00;5.00;;;;;22.16;30.99;102046.13;5068403;27;45480;-71